sensor_id;sensor_type;location;lat;lon;timestamp;pressure;altitude;pressure_sealevel;temperature;humidity
75089;BME280;63673;49.928;8.150;2023-02-01T00:00:00;996.34;;;3.87;100
75089;BME280;63673;49.928;8.150;2023-02-01T00:01:05;996.33;;;3.87;100
75089;BME280;63673;49.928;8.150;2023-02-01T00:02:04;996.33;;;3.86;100
75089;BME280;63673;49.928;8.150;2023-02-01T00:03:06;996.35;;;3.85;100
75089;BME280;63673;49.928;8.150;2023-02-01T00:04:07;996.37;;;3.85;100
75089;BME280;63673;49.928;8.150;2023-02-01T00:05:09;996.35;;;3.84;100
75089;BME280;63673;49.928;8.150;2023-02-01T00:06:11;996.28;;;3.84;100
75089;BME280;63673;49.928;8.150;2023-02-01T00:07:12;996.31;;;3.84;100
75089;BME280;63673;49.928;8.150;2023-02-01T00:08:14;996.27;;;3.82;100
75089;BME280;63673;49.928;8.150;2023-02-01T00:09:16;996.28;;;3.82;100
75089;BME280;63673;49.928;8.150;2023-02-01T00:10:18;996.22;;;3.82;100
75089;BME280;63673;49.928;8.150;2023-02-01T00:11:19;996.23;;;3.82;100
75089;BME280;63673;49.928;8.150;2023-02-01T00:12:21;996.2;;;3.8;100
75089;BME280;63673;49.928;8.150;2023-02-01T00:13:23;996.21;;;3.79;100
75089;BME280;63673;49.928;8.150;2023-02-01T00:14:25;996.18;;;3.78;100
75089;BME280;63673;49.928;8.150;2023-02-01T00:15:26;996.18;;;3.76;100
75089;BME280;63673;49.928;8.150;2023-02-01T00:16:29;996.17;;;3.75;100
75089;BME280;63673;49.928;8.150;2023-02-01T00:17:30;996.23;;;3.73;100
75089;BME280;63673;49.928;8.150;2023-02-01T00:18:32;996.27;;;3.71;100
75089;BME280;63673;49.928;8.150;2023-02-01T00:19:33;996.26;;;3.7;100
75089;BME280;63673;49.928;8.150;2023-02-01T00:20:35;996.16;;;3.67;100
75089;BME280;63673;49.928;8.150;2023-02-01T00:21:37;996.13;;;3.66;100
75089;BME280;63673;49.928;8.150;2023-02-01T00:22:38;996.2;;;3.65;100
75089;BME280;63673;49.928;8.150;2023-02-01T00:23:40;996.16;;;3.64;100
75089;BME280;63673;49.928;8.150;2023-02-01T00:24:42;996.16;;;3.62;100
75089;BME280;63673;49.928;8.150;2023-02-01T00:25:44;996.18;;;3.59;100
75089;BME280;63673;49.928;8.150;2023-02-01T00:26:45;996.15;;;3.59;100
75089;BME280;63673;49.928;8.150;2023-02-01T00:27:48;996.09;;;3.58;100
75089;BME280;63673;49.928;8.150;2023-02-01T00:28:49;996.1;;;3.57;100
75089;BME280;63673;49.928;8.150;2023-02-01T00:29:51;996.12;;;3.56;100
75089;BME280;63673;49.928;8.150;2023-02-01T00:30:55;996.13;;;3.56;100
75089;BME280;63673;49.928;8.150;2023-02-01T00:31:54;996.13;;;3.55;100
75089;BME280;63673;49.928;8.150;2023-02-01T00:32:56;996.09;;;3.54;100
75089;BME280;63673;49.928;8.150;2023-02-01T00:33:58;996.1;;;3.54;100
75089;BME280;63673;49.928;8.150;2023-02-01T00:34:59;996.12;;;3.53;100
75089;BME280;63673;49.928;8.150;2023-02-01T00:36:02;996.15;;;3.53;100
75089;BME280;63673;49.928;8.150;2023-02-01T00:37:03;996.11;;;3.53;100
75089;BME280;63673;49.928;8.150;2023-02-01T00:38:06;996.09;;;3.53;100
75089;BME280;63673;49.928;8.150;2023-02-01T00:39:06;996.08;;;3.53;100
75089;BME280;63673;49.928;8.150;2023-02-01T00:40:08;996.12;;;3.53;100
75089;BME280;63673;49.928;8.150;2023-02-01T00:41:10;996.09;;;3.54;100
75089;BME280;63673;49.928;8.150;2023-02-01T00:42:11;996.06;;;3.55;100
75089;BME280;63673;49.928;8.150;2023-02-01T00:43:13;996.07;;;3.56;100
75089;BME280;63673;49.928;8.150;2023-02-01T00:44:15;996.08;;;3.57;100
75089;BME280;63673;49.928;8.150;2023-02-01T00:45:17;996.04;;;3.58;100
75089;BME280;63673;49.928;8.150;2023-02-01T00:46:19;996.05;;;3.59;100
75089;BME280;63673;49.928;8.150;2023-02-01T00:47:20;996.08;;;3.61;100
75089;BME280;63673;49.928;8.150;2023-02-01T00:48:22;996.03;;;3.62;100
75089;BME280;63673;49.928;8.150;2023-02-01T00:49:24;996.05;;;3.63;100
75089;BME280;63673;49.928;8.150;2023-02-01T00:50:25;996.08;;;3.65;100
75089;BME280;63673;49.928;8.150;2023-02-01T00:51:28;996.02;;;3.66;100
75089;BME280;63673;49.928;8.150;2023-02-01T00:52:29;996.03;;;3.67;100
75089;BME280;63673;49.928;8.150;2023-02-01T00:53:31;996;;;3.67;100
75089;BME280;63673;49.928;8.150;2023-02-01T00:54:32;995.98;;;3.68;100
75089;BME280;63673;49.928;8.150;2023-02-01T00:55:34;995.95;;;3.69;100
75089;BME280;63673;49.928;8.150;2023-02-01T00:56:36;995.9;;;3.71;100
75089;BME280;63673;49.928;8.150;2023-02-01T00:57:37;996.01;;;3.72;100
75089;BME280;63673;49.928;8.150;2023-02-01T00:58:39;995.99;;;3.73;100
75089;BME280;63673;49.928;8.150;2023-02-01T00:59:41;996;;;3.75;100
75089;BME280;63673;49.928;8.150;2023-02-01T01:00:43;996.05;;;3.77;100
75089;BME280;63673;49.928;8.150;2023-02-01T01:01:44;995.98;;;3.77;100
75089;BME280;63673;49.928;8.150;2023-02-01T01:02:46;995.97;;;3.78;100
75089;BME280;63673;49.928;8.150;2023-02-01T01:03:49;995.97;;;3.8;100
75089;BME280;63673;49.928;8.150;2023-02-01T01:04:50;996.01;;;3.8;100
75089;BME280;63673;49.928;8.150;2023-02-01T01:05:56;995.99;;;3.82;100
75089;BME280;63673;49.928;8.150;2023-02-01T01:06:53;996.04;;;3.82;100
75089;BME280;63673;49.928;8.150;2023-02-01T01:07:55;995.97;;;3.82;100
75089;BME280;63673;49.928;8.150;2023-02-01T01:08:58;996.02;;;3.82;100
75089;BME280;63673;49.928;8.150;2023-02-01T01:09:58;995.99;;;3.84;100
75089;BME280;63673;49.928;8.150;2023-02-01T01:11:03;996.02;;;3.84;100
75089;BME280;63673;49.928;8.150;2023-02-01T01:12:02;995.98;;;3.86;100
75089;BME280;63673;49.928;8.150;2023-02-01T01:13:03;996;;;3.86;100
75089;BME280;63673;49.928;8.150;2023-02-01T01:14:06;995.91;;;3.85;100
75089;BME280;63673;49.928;8.150;2023-02-01T01:15:07;995.97;;;3.86;100
75089;BME280;63673;49.928;8.150;2023-02-01T01:16:09;996.02;;;3.87;100
75089;BME280;63673;49.928;8.150;2023-02-01T01:17:10;995.99;;;3.88;100
75089;BME280;63673;49.928;8.150;2023-02-01T01:18:12;995.97;;;3.88;100
75089;BME280;63673;49.928;8.150;2023-02-01T01:19:14;995.97;;;3.88;100
75089;BME280;63673;49.928;8.150;2023-02-01T01:20:16;996;;;3.87;100
75089;BME280;63673;49.928;8.150;2023-02-01T01:21:18;996.01;;;3.88;100
75089;BME280;63673;49.928;8.150;2023-02-01T01:22:19;995.93;;;3.89;100
75089;BME280;63673;49.928;8.150;2023-02-01T01:23:21;995.9;;;3.89;100
75089;BME280;63673;49.928;8.150;2023-02-01T01:24:22;995.9;;;3.89;100
75089;BME280;63673;49.928;8.150;2023-02-01T01:25:24;995.97;;;3.9;100
75089;BME280;63673;49.928;8.150;2023-02-01T01:26:27;995.93;;;3.9;100
75089;BME280;63673;49.928;8.150;2023-02-01T01:27:28;995.94;;;3.89;100
75089;BME280;63673;49.928;8.150;2023-02-01T01:28:29;995.88;;;3.89;100
75089;BME280;63673;49.928;8.150;2023-02-01T01:29:31;995.88;;;3.9;100
75089;BME280;63673;49.928;8.150;2023-02-01T01:30:33;995.9;;;3.9;100
75089;BME280;63673;49.928;8.150;2023-02-01T01:31:35;995.85;;;3.9;100
75089;BME280;63673;49.928;8.150;2023-02-01T01:32:36;995.84;;;3.9;100
75089;BME280;63673;49.928;8.150;2023-02-01T01:33:38;995.84;;;3.91;100
75089;BME280;63673;49.928;8.150;2023-02-01T01:34:40;995.83;;;3.9;100
75089;BME280;63673;49.928;8.150;2023-02-01T01:35:42;995.85;;;3.92;100
75089;BME280;63673;49.928;8.150;2023-02-01T01:36:43;995.84;;;3.92;100
75089;BME280;63673;49.928;8.150;2023-02-01T01:37:45;995.83;;;3.92;100
75089;BME280;63673;49.928;8.150;2023-02-01T01:38:47;995.84;;;3.92;100
75089;BME280;63673;49.928;8.150;2023-02-01T01:39:48;995.86;;;3.92;100
75089;BME280;63673;49.928;8.150;2023-02-01T01:40:50;995.83;;;3.9;100
75089;BME280;63673;49.928;8.150;2023-02-01T01:41:52;995.84;;;3.92;100
75089;BME280;63673;49.928;8.150;2023-02-01T01:42:54;995.83;;;3.91;100
75089;BME280;63673;49.928;8.150;2023-02-01T01:43:56;995.83;;;3.91;100
75089;BME280;63673;49.928;8.150;2023-02-01T01:44:59;995.9;;;3.9;100
75089;BME280;63673;49.928;8.150;2023-02-01T01:45:59;995.84;;;3.9;100
75089;BME280;63673;49.928;8.150;2023-02-01T01:47:01;995.82;;;3.9;100
75089;BME280;63673;49.928;8.150;2023-02-01T01:48:03;995.83;;;3.9;100
75089;BME280;63673;49.928;8.150;2023-02-01T01:49:05;995.81;;;3.89;100
75089;BME280;63673;49.928;8.150;2023-02-01T01:50:07;995.79;;;3.9;100
75089;BME280;63673;49.928;8.150;2023-02-01T01:51:08;995.79;;;3.89;100
75089;BME280;63673;49.928;8.150;2023-02-01T01:52:09;995.81;;;3.89;100
75089;BME280;63673;49.928;8.150;2023-02-01T01:53:12;995.83;;;3.89;100
75089;BME280;63673;49.928;8.150;2023-02-01T01:54:14;995.83;;;3.88;100
75089;BME280;63673;49.928;8.150;2023-02-01T01:55:14;995.77;;;3.89;100
75089;BME280;63673;49.928;8.150;2023-02-01T01:56:16;995.82;;;3.89;100
75089;BME280;63673;49.928;8.150;2023-02-01T01:57:19;995.8;;;3.88;100
75089;BME280;63673;49.928;8.150;2023-02-01T01:58:21;995.73;;;3.88;100
75089;BME280;63673;49.928;8.150;2023-02-01T01:59:22;995.76;;;3.88;100
75089;BME280;63673;49.928;8.150;2023-02-01T02:00:24;995.71;;;3.88;100
75089;BME280;63673;49.928;8.150;2023-02-01T02:01:25;995.76;;;3.88;100
75089;BME280;63673;49.928;8.150;2023-02-01T02:02:27;995.73;;;3.88;100
75089;BME280;63673;49.928;8.150;2023-02-01T02:03:30;995.69;;;3.89;100
75089;BME280;63673;49.928;8.150;2023-02-01T02:04:30;995.72;;;3.88;100
75089;BME280;63673;49.928;8.150;2023-02-01T02:05:32;995.7;;;3.88;100
75089;BME280;63673;49.928;8.150;2023-02-01T02:06:36;995.69;;;3.89;100
75089;BME280;63673;49.928;8.150;2023-02-01T02:07:36;995.62;;;3.88;100
75089;BME280;63673;49.928;8.150;2023-02-01T02:08:37;995.62;;;3.89;100
75089;BME280;63673;49.928;8.150;2023-02-01T02:09:39;995.64;;;3.88;100
75089;BME280;63673;49.928;8.150;2023-02-01T02:10:40;995.61;;;3.88;100
75089;BME280;63673;49.928;8.150;2023-02-01T02:11:42;995.6;;;3.89;100
75089;BME280;63673;49.928;8.150;2023-02-01T02:12:44;995.53;;;3.88;100
75089;BME280;63673;49.928;8.150;2023-02-01T02:13:46;995.58;;;3.89;100
75089;BME280;63673;49.928;8.150;2023-02-01T02:14:47;995.47;;;3.89;100
75089;BME280;63673;49.928;8.150;2023-02-01T02:15:52;995.49;;;3.89;100
75089;BME280;63673;49.928;8.150;2023-02-01T02:16:54;995.42;;;3.89;100
75089;BME280;63673;49.928;8.150;2023-02-01T02:17:54;995.41;;;3.89;100
75089;BME280;63673;49.928;8.150;2023-02-01T02:18:57;995.39;;;3.89;100
75089;BME280;63673;49.928;8.150;2023-02-01T02:21:02;995.36;;;3.9;100
75089;BME280;63673;49.928;8.150;2023-02-01T02:21:14;995.38;;;3.89;100
75089;BME280;63673;49.928;8.150;2023-02-01T02:22:07;995.41;;;3.89;100
75089;BME280;63673;49.928;8.150;2023-02-01T02:23:38;995.45;;;3.9;100
75089;BME280;63673;49.928;8.150;2023-02-01T02:24:43;995.45;;;3.9;100
75089;BME280;63673;49.928;8.150;2023-02-01T02:25:22;995.38;;;3.9;100
75089;BME280;63673;49.928;8.150;2023-02-01T02:26:11;995.37;;;3.91;100
75089;BME280;63673;49.928;8.150;2023-02-01T02:27:10;995.36;;;3.9;100
75089;BME280;63673;49.928;8.150;2023-02-01T02:28:13;995.36;;;3.91;100
75089;BME280;63673;49.928;8.150;2023-02-01T02:29:18;995.3;;;3.91;100
75089;BME280;63673;49.928;8.150;2023-02-01T02:30:22;995.34;;;3.92;100
75089;BME280;63673;49.928;8.150;2023-02-01T02:31:52;995.3;;;3.93;100
75089;BME280;63673;49.928;8.150;2023-02-01T02:33:25;995.3;;;3.93;100
75089;BME280;63673;49.928;8.150;2023-02-01T02:34:21;995.36;;;3.93;100
75089;BME280;63673;49.928;8.150;2023-02-01T02:35:25;995.35;;;3.94;100
75089;BME280;63673;49.928;8.150;2023-02-01T02:36:27;995.4;;;3.95;100
75089;BME280;63673;49.928;8.150;2023-02-01T02:37:28;995.48;;;3.94;100
75089;BME280;63673;49.928;8.150;2023-02-01T02:38:30;995.42;;;3.95;100
75089;BME280;63673;49.928;8.150;2023-02-01T02:39:34;995.47;;;3.95;100
75089;BME280;63673;49.928;8.150;2023-02-01T02:40:32;995.5;;;3.95;100
75089;BME280;63673;49.928;8.150;2023-02-01T02:41:33;995.46;;;3.96;100
75089;BME280;63673;49.928;8.150;2023-02-01T02:42:37;995.49;;;3.97;100
75089;BME280;63673;49.928;8.150;2023-02-01T02:43:37;995.48;;;3.97;100
75089;BME280;63673;49.928;8.150;2023-02-01T02:44:40;995.47;;;3.99;100
75089;BME280;63673;49.928;8.150;2023-02-01T02:45:41;995.46;;;3.98;100
75089;BME280;63673;49.928;8.150;2023-02-01T02:46:44;995.56;;;3.98;100
75089;BME280;63673;49.928;8.150;2023-02-01T02:47:44;995.57;;;3.99;100
75089;BME280;63673;49.928;8.150;2023-02-01T02:48:46;995.59;;;4;100
75089;BME280;63673;49.928;8.150;2023-02-01T02:49:49;995.62;;;4;100
75089;BME280;63673;49.928;8.150;2023-02-01T02:50:49;995.58;;;4.01;100
75089;BME280;63673;49.928;8.150;2023-02-01T02:51:50;995.59;;;4.01;100
75089;BME280;63673;49.928;8.150;2023-02-01T02:52:53;995.57;;;4.02;100
75089;BME280;63673;49.928;8.150;2023-02-01T02:53:56;995.58;;;4.01;100
75089;BME280;63673;49.928;8.150;2023-02-01T02:54:55;995.53;;;4.02;100
75089;BME280;63673;49.928;8.150;2023-02-01T02:55:57;995.58;;;4.02;100
75089;BME280;63673;49.928;8.150;2023-02-01T02:56:59;995.57;;;4.02;100
75089;BME280;63673;49.928;8.150;2023-02-01T02:58:00;995.53;;;4.03;100
75089;BME280;63673;49.928;8.150;2023-02-01T02:59:02;995.51;;;4.03;100
75089;BME280;63673;49.928;8.150;2023-02-01T03:00:04;995.57;;;4.02;100
75089;BME280;63673;49.928;8.150;2023-02-01T03:01:05;995.5;;;4.03;100
75089;BME280;63673;49.928;8.150;2023-02-01T03:02:07;995.48;;;4.03;100
75089;BME280;63673;49.928;8.150;2023-02-01T03:03:09;995.46;;;4.03;100
75089;BME280;63673;49.928;8.150;2023-02-01T03:04:11;995.49;;;4.03;100
75089;BME280;63673;49.928;8.150;2023-02-01T03:05:12;995.47;;;4.02;100
75089;BME280;63673;49.928;8.150;2023-02-01T03:06:14;995.45;;;4.03;100
75089;BME280;63673;49.928;8.150;2023-02-01T03:07:46;995.45;;;4.03;100
75089;BME280;63673;49.928;8.150;2023-02-01T03:08:18;995.44;;;4.02;100
75089;BME280;63673;49.928;8.150;2023-02-01T03:09:21;995.43;;;4.02;100
75089;BME280;63673;49.928;8.150;2023-02-01T03:10:23;995.42;;;4.02;100
75089;BME280;63673;49.928;8.150;2023-02-01T03:11:23;995.44;;;4.01;100
75089;BME280;63673;49.928;8.150;2023-02-01T03:12:25;995.41;;;4.01;100
75089;BME280;63673;49.928;8.150;2023-02-01T03:13:28;995.42;;;4.02;100
75089;BME280;63673;49.928;8.150;2023-02-01T03:14:28;995.43;;;4.01;100
75089;BME280;63673;49.928;8.150;2023-02-01T03:15:32;995.39;;;4.01;100
75089;BME280;63673;49.928;8.150;2023-02-01T03:16:32;995.43;;;4;100
75089;BME280;63673;49.928;8.150;2023-02-01T03:17:34;995.41;;;4.01;100
75089;BME280;63673;49.928;8.150;2023-02-01T03:18:36;995.38;;;3.99;100
75089;BME280;63673;49.928;8.150;2023-02-01T03:19:37;995.43;;;3.99;100
75089;BME280;63673;49.928;8.150;2023-02-01T03:20:39;995.42;;;3.98;100
75089;BME280;63673;49.928;8.150;2023-02-01T03:21:41;995.38;;;3.99;100
75089;BME280;63673;49.928;8.150;2023-02-01T03:22:42;995.4;;;3.97;100
75089;BME280;63673;49.928;8.150;2023-02-01T03:23:44;995.4;;;3.97;100
75089;BME280;63673;49.928;8.150;2023-02-01T03:24:46;995.42;;;3.97;100
75089;BME280;63673;49.928;8.150;2023-02-01T03:25:47;995.44;;;3.97;100
75089;BME280;63673;49.928;8.150;2023-02-01T03:26:50;995.4;;;3.96;100
75089;BME280;63673;49.928;8.150;2023-02-01T03:27:51;995.37;;;3.95;100
75089;BME280;63673;49.928;8.150;2023-02-01T03:28:54;995.37;;;3.95;100
75089;BME280;63673;49.928;8.150;2023-02-01T03:29:54;995.39;;;3.95;100
75089;BME280;63673;49.928;8.150;2023-02-01T03:30:56;995.35;;;3.95;100
75089;BME280;63673;49.928;8.150;2023-02-01T03:31:57;995.23;;;3.94;100
75089;BME280;63673;49.928;8.150;2023-02-01T03:33:00;995.29;;;3.93;100
75089;BME280;63673;49.928;8.150;2023-02-01T03:34:01;995.3;;;3.93;100
75089;BME280;63673;49.928;8.150;2023-02-01T03:35:03;995.28;;;3.93;100
75089;BME280;63673;49.928;8.150;2023-02-01T03:36:15;995.27;;;3.92;100
75089;BME280;63673;49.928;8.150;2023-02-01T03:37:07;995.3;;;3.91;100
75089;BME280;63673;49.928;8.150;2023-02-01T03:38:08;995.29;;;3.91;100
75089;BME280;63673;49.928;8.150;2023-02-01T03:39:11;995.22;;;3.9;100
75089;BME280;63673;49.928;8.150;2023-02-01T03:40:11;995.17;;;3.9;100
75089;BME280;63673;49.928;8.150;2023-02-01T03:41:15;995.09;;;3.89;100
75089;BME280;63673;49.928;8.150;2023-02-01T03:42:16;995.09;;;3.88;100
75089;BME280;63673;49.928;8.150;2023-02-01T03:43:17;995.05;;;3.88;100
75089;BME280;63673;49.928;8.150;2023-02-01T03:44:19;995.07;;;3.87;100
75089;BME280;63673;49.928;8.150;2023-02-01T03:45:21;995.09;;;3.86;100
75089;BME280;63673;49.928;8.150;2023-02-01T03:46:24;995.08;;;3.85;100
75089;BME280;63673;49.928;8.150;2023-02-01T03:47:24;995.06;;;3.84;100
75089;BME280;63673;49.928;8.150;2023-02-01T03:48:25;995.08;;;3.84;100
75089;BME280;63673;49.928;8.150;2023-02-01T03:49:27;995.05;;;3.83;100
75089;BME280;63673;49.928;8.150;2023-02-01T03:50:29;995.02;;;3.82;100
75089;BME280;63673;49.928;8.150;2023-02-01T03:51:30;995.04;;;3.8;100
75089;BME280;63673;49.928;8.150;2023-02-01T03:52:33;995.08;;;3.8;100
75089;BME280;63673;49.928;8.150;2023-02-01T03:53:34;995.06;;;3.79;100
75089;BME280;63673;49.928;8.150;2023-02-01T03:54:36;995.09;;;3.78;100
75089;BME280;63673;49.928;8.150;2023-02-01T03:55:37;995.07;;;3.77;100
75089;BME280;63673;49.928;8.150;2023-02-01T03:56:40;995.06;;;3.75;100
75089;BME280;63673;49.928;8.150;2023-02-01T03:57:43;994.97;;;3.75;100
75089;BME280;63673;49.928;8.150;2023-02-01T03:58:43;994.97;;;3.74;100
75089;BME280;63673;49.928;8.150;2023-02-01T03:59:45;995.02;;;3.73;100
75089;BME280;63673;49.928;8.150;2023-02-01T04:00:49;995.03;;;3.73;100
75089;BME280;63673;49.928;8.150;2023-02-01T04:01:48;995.04;;;3.73;100
75089;BME280;63673;49.928;8.150;2023-02-01T04:02:50;995.09;;;3.73;100
75089;BME280;63673;49.928;8.150;2023-02-01T04:03:51;995.05;;;3.72;100
75089;BME280;63673;49.928;8.150;2023-02-01T04:04:53;995.13;;;3.72;100
75089;BME280;63673;49.928;8.150;2023-02-01T04:05:55;995.19;;;3.72;100
75089;BME280;63673;49.928;8.150;2023-02-01T04:06:56;995.21;;;3.73;100
75089;BME280;63673;49.928;8.150;2023-02-01T04:07:58;995.19;;;3.72;100
75089;BME280;63673;49.928;8.150;2023-02-01T04:09:00;995.13;;;3.71;100
75089;BME280;63673;49.928;8.150;2023-02-01T04:10:02;995.15;;;3.7;100
75089;BME280;63673;49.928;8.150;2023-02-01T04:11:03;995.08;;;3.7;100
75089;BME280;63673;49.928;8.150;2023-02-01T04:12:05;995.12;;;3.7;100
75089;BME280;63673;49.928;8.150;2023-02-01T04:13:07;995.18;;;3.68;100
75089;BME280;63673;49.928;8.150;2023-02-01T04:14:09;995.19;;;3.66;100
75089;BME280;63673;49.928;8.150;2023-02-01T04:15:10;995.21;;;3.66;100
75089;BME280;63673;49.928;8.150;2023-02-01T04:16:12;995.21;;;3.65;100
75089;BME280;63673;49.928;8.150;2023-02-01T04:17:14;995.23;;;3.63;100
75089;BME280;63673;49.928;8.150;2023-02-01T04:18:15;995.23;;;3.64;100
75089;BME280;63673;49.928;8.150;2023-02-01T04:19:17;995.24;;;3.63;100
75089;BME280;63673;49.928;8.150;2023-02-01T04:20:19;995.27;;;3.61;100
75089;BME280;63673;49.928;8.150;2023-02-01T04:21:21;995.19;;;3.6;100
75089;BME280;63673;49.928;8.150;2023-02-01T04:22:22;995.14;;;3.61;100
75089;BME280;63673;49.928;8.150;2023-02-01T04:23:24;995.18;;;3.61;100
75089;BME280;63673;49.928;8.150;2023-02-01T04:24:26;995.14;;;3.6;100
75089;BME280;63673;49.928;8.150;2023-02-01T04:25:28;995.09;;;3.59;100
75089;BME280;63673;49.928;8.150;2023-02-01T04:26:29;995.19;;;3.59;100
75089;BME280;63673;49.928;8.150;2023-02-01T04:27:31;995.18;;;3.59;100
75089;BME280;63673;49.928;8.150;2023-02-01T04:28:33;995.19;;;3.58;100
75089;BME280;63673;49.928;8.150;2023-02-01T04:29:35;995.16;;;3.58;100
75089;BME280;63673;49.928;8.150;2023-02-01T04:30:36;995.16;;;3.57;100
75089;BME280;63673;49.928;8.150;2023-02-01T04:31:38;995.16;;;3.55;100
75089;BME280;63673;49.928;8.150;2023-02-01T04:32:40;995.16;;;3.54;100
75089;BME280;63673;49.928;8.150;2023-02-01T04:33:42;995.18;;;3.53;100
75089;BME280;63673;49.928;8.150;2023-02-01T04:34:43;995.21;;;3.52;100
75089;BME280;63673;49.928;8.150;2023-02-01T04:35:45;995.13;;;3.5;100
75089;BME280;63673;49.928;8.150;2023-02-01T04:36:47;995.12;;;3.48;100
75089;BME280;63673;49.928;8.150;2023-02-01T04:37:48;995.15;;;3.47;100
75089;BME280;63673;49.928;8.150;2023-02-01T04:38:50;995.23;;;3.47;100
75089;BME280;63673;49.928;8.150;2023-02-01T04:39:52;995.17;;;3.45;100
75089;BME280;63673;49.928;8.150;2023-02-01T04:40:54;995.19;;;3.45;100
75089;BME280;63673;49.928;8.150;2023-02-01T04:41:55;995.14;;;3.44;100
75089;BME280;63673;49.928;8.150;2023-02-01T04:42:57;995.18;;;3.44;100
75089;BME280;63673;49.928;8.150;2023-02-01T04:43:59;995.18;;;3.43;100
75089;BME280;63673;49.928;8.150;2023-02-01T04:45:01;995.14;;;3.45;100
75089;BME280;63673;49.928;8.150;2023-02-01T04:46:02;995.14;;;3.44;100
75089;BME280;63673;49.928;8.150;2023-02-01T04:47:04;995.16;;;3.44;100
75089;BME280;63673;49.928;8.150;2023-02-01T04:48:06;995.13;;;3.45;100
75089;BME280;63673;49.928;8.150;2023-02-01T04:49:08;995.12;;;3.45;100
75089;BME280;63673;49.928;8.150;2023-02-01T04:50:09;995.19;;;3.44;100
75089;BME280;63673;49.928;8.150;2023-02-01T04:51:11;995.2;;;3.43;100
75089;BME280;63673;49.928;8.150;2023-02-01T04:52:13;995.17;;;3.44;100
75089;BME280;63673;49.928;8.150;2023-02-01T04:53:14;995.15;;;3.43;100
75089;BME280;63673;49.928;8.150;2023-02-01T04:54:17;995.25;;;3.42;100
75089;BME280;63673;49.928;8.150;2023-02-01T04:55:18;995.2;;;3.42;100
75089;BME280;63673;49.928;8.150;2023-02-01T04:56:20;995.17;;;3.41;100
75089;BME280;63673;49.928;8.150;2023-02-01T04:57:21;995.21;;;3.42;100
75089;BME280;63673;49.928;8.150;2023-02-01T04:58:23;995.21;;;3.41;100
75089;BME280;63673;49.928;8.150;2023-02-01T04:59:25;995.24;;;3.41;100
75089;BME280;63673;49.928;8.150;2023-02-01T05:00:27;995.27;;;3.4;100
75089;BME280;63673;49.928;8.150;2023-02-01T05:01:28;995.22;;;3.39;100
75089;BME280;63673;49.928;8.150;2023-02-01T05:02:30;995.24;;;3.39;100
75089;BME280;63673;49.928;8.150;2023-02-01T05:03:32;995.31;;;3.39;100
75089;BME280;63673;49.928;8.150;2023-02-01T05:04:33;995.28;;;3.38;100
75089;BME280;63673;49.928;8.150;2023-02-01T05:05:35;995.29;;;3.38;100
75089;BME280;63673;49.928;8.150;2023-02-01T05:06:37;995.24;;;3.37;100
75089;BME280;63673;49.928;8.150;2023-02-01T05:07:39;995.29;;;3.37;100
75089;BME280;63673;49.928;8.150;2023-02-01T05:08:40;995.19;;;3.37;100
75089;BME280;63673;49.928;8.150;2023-02-01T05:09:42;995.13;;;3.37;100
75089;BME280;63673;49.928;8.150;2023-02-01T05:10:44;995.11;;;3.36;100
75089;BME280;63673;49.928;8.150;2023-02-01T05:11:46;995.02;;;3.35;100
75089;BME280;63673;49.928;8.150;2023-02-01T05:12:47;995.18;;;3.34;100
75089;BME280;63673;49.928;8.150;2023-02-01T05:13:49;995.19;;;3.34;100
75089;BME280;63673;49.928;8.150;2023-02-01T05:14:51;995.22;;;3.34;100
75089;BME280;63673;49.928;8.150;2023-02-01T05:15:52;995.23;;;3.33;100
75089;BME280;63673;49.928;8.150;2023-02-01T05:16:54;995.1;;;3.31;100
75089;BME280;63673;49.928;8.150;2023-02-01T05:17:56;995.09;;;3.31;100
75089;BME280;63673;49.928;8.150;2023-02-01T05:18:58;995.12;;;3.31;100
75089;BME280;63673;49.928;8.150;2023-02-01T05:19:59;995.06;;;3.3;100
75089;BME280;63673;49.928;8.150;2023-02-01T05:21:01;994.92;;;3.29;100
75089;BME280;63673;49.928;8.150;2023-02-01T05:22:03;994.98;;;3.29;100
75089;BME280;63673;49.928;8.150;2023-02-01T05:23:05;995.11;;;3.29;100
75089;BME280;63673;49.928;8.150;2023-02-01T05:24:07;995.07;;;3.28;100
75089;BME280;63673;49.928;8.150;2023-02-01T05:25:08;995.08;;;3.27;100
75089;BME280;63673;49.928;8.150;2023-02-01T05:26:10;994.96;;;3.26;100
75089;BME280;63673;49.928;8.150;2023-02-01T05:27:12;994.95;;;3.26;100
75089;BME280;63673;49.928;8.150;2023-02-01T05:28:13;994.91;;;3.25;100
75089;BME280;63673;49.928;8.150;2023-02-01T05:29:15;994.87;;;3.24;100
75089;BME280;63673;49.928;8.150;2023-02-01T05:30:17;994.91;;;3.23;100
75089;BME280;63673;49.928;8.150;2023-02-01T05:31:19;994.88;;;3.21;100
75089;BME280;63673;49.928;8.150;2023-02-01T05:32:20;994.84;;;3.21;100
75089;BME280;63673;49.928;8.150;2023-02-01T05:33:22;994.84;;;3.2;100
75089;BME280;63673;49.928;8.150;2023-02-01T05:34:24;994.82;;;3.19;100
75089;BME280;63673;49.928;8.150;2023-02-01T05:35:25;994.82;;;3.18;100
75089;BME280;63673;49.928;8.150;2023-02-01T05:36:27;994.91;;;3.17;100
75089;BME280;63673;49.928;8.150;2023-02-01T05:37:29;994.92;;;3.17;100
75089;BME280;63673;49.928;8.150;2023-02-01T05:38:31;994.92;;;3.16;100
75089;BME280;63673;49.928;8.150;2023-02-01T05:39:33;994.94;;;3.16;100
75089;BME280;63673;49.928;8.150;2023-02-01T05:40:34;994.88;;;3.15;100
75089;BME280;63673;49.928;8.150;2023-02-01T05:41:36;994.93;;;3.15;100
75089;BME280;63673;49.928;8.150;2023-02-01T05:42:38;994.93;;;3.13;100
75089;BME280;63673;49.928;8.150;2023-02-01T05:43:39;994.99;;;3.14;100
75089;BME280;63673;49.928;8.150;2023-02-01T05:44:41;995.04;;;3.13;100
75089;BME280;63673;49.928;8.150;2023-02-01T05:45:43;995.03;;;3.12;100
75089;BME280;63673;49.928;8.150;2023-02-01T05:46:46;995.1;;;3.12;100
75089;BME280;63673;49.928;8.150;2023-02-01T05:47:46;995.07;;;3.11;100
75089;BME280;63673;49.928;8.150;2023-02-01T05:48:48;995.01;;;3.11;100
75089;BME280;63673;49.928;8.150;2023-02-01T05:49:50;995.05;;;3.11;100
75089;BME280;63673;49.928;8.150;2023-02-01T05:50:52;995.07;;;3.1;100
75089;BME280;63673;49.928;8.150;2023-02-01T05:51:53;995.09;;;3.1;100